Flight Track Log - Related Links

Times and Time Zones

All times are in EDT time to prevent confusion due to time zone crossing. See the AAL1476 flight status page for this flight to view local times or setup timezone preferences in your user account.

Time Position Orientation Groundspeed Altitude Reporting Facility
EDT Latitude Longitude Course Direction KTS MPH feet Rate Location/Type
07:45AM 37.6319 -97.4475 158° South 157 181 2,200  Level Kansas City Center
07:46AM 37.5822 -97.4553 187° South 185 213 4,000 1,500 Climbing Kansas City Center
07:47AM 37.5803 -97.4544 161° South 205 236 4,100 2,451 Climbing Kansas City Center
07:48AM 37.3829 -97.4096 174° South  Level Estimated
07:48AM 37.5119 -97.4411 171° South 240 276 6,900  Level Kansas City Center
07:49AM 37.2938 -97.4018 180° South  Level Estimated
07:49AM 37.4356 -97.4244 170° South 274 315 9,900  Level Kansas City Center
07:50AM 37.2048 -97.3940 158° South  Level Estimated
07:50AM 37.3497 -97.4033 169° South 307 353 11,900  Level Kansas City Center
07:51AM 37.1158 -97.3863 158° South  Level Estimated
07:51AM 37.2517 -97.3733 166° South 356 410 14,500  Level Kansas City Center
07:52AM 37.1311 -97.3214 161° South 382 440 17,500 2,459 Climbing Kansas City Center
07:53AM 37.0278 -97.2722 159° South 394 453 19,500 2,066 Climbing Kansas City Center
07:54AM 36.9186 -97.2283 162° South 408 470 21,700 1,967 Climbing Kansas City Center
07:55AM 36.8128 -97.1817 161° South 423 487 23,500 2,016 Climbing Kansas City Center
07:56AM 36.6947 -97.1767 178° South 432 497 25,800 2,361 Climbing Kansas City Center
07:57AM 36.5792 -97.2119 194° South 429 494 28,300 2,066 Climbing Kansas City Center
07:58AM 36.4672 -97.2522 196° South 423 487 30,000 836 Climbing Kansas City Center
07:59AM 36.3314 -97.2964 195° South 423 487 30,000  Level Kansas City Center
08:00AM 36.2175 -97.3344 195° South 423 487 30,000  Level Kansas City Center
08:01AM 36.1047 -97.3706 195° South 422 486 30,000  Level Kansas City Center
08:02AM 35.9914 -97.4058 194° South 422 486 30,000  Level Kansas City Center
08:08AM 35.3396 -97.5991 182° South 431 496 30,000  Level FlightAware ADS-B
08:08AM 35.2786 -97.5969 176° South 432 497 30,000  Level FlightAware ADS-B
08:09AM 35.1647 -97.5833 176° South 432 497 30,000  Level Fort Worth Center
08:10AM 35.0478 -97.5664 173° South 432 497 30,000  Level Fort Worth Center
08:11AM 34.9292 -97.5497 173° South 432 497 30,000  Level Fort Worth Center
08:12AM 34.7883 -97.5558 182° South 426 490 30,000  Level Fort Worth Center
08:13AM 34.6731 -97.5819 191° South 425 489 30,000 -49 Level Fort Worth Center
08:14AM 34.5561 -97.6058 190° South 425 489 29,900 -488 Descending Fort Worth Center
08:15AM 34.4403 -97.6317 190° South 425 489 29,000 -934 Descending Fort Worth Center
08:16AM 34.3233 -97.6561 190° South 424 488 28,000 -976 Descending Fort Worth Center
08:17AM 34.2061 -97.6828 191° South 425 489 27,000 -1,610 Descending Fort Worth Center
08:18AM 34.0739 -97.7092 189° South 427 491 24,700 -2,361 Descending Fort Worth Center
08:19AM 33.9533 -97.7339 190° South 435 501 22,200 -2,146 Descending Fort Worth Center
08:20AM 33.8358 -97.7581 190° South 406 467 20,300 -1,756 Descending Fort Worth Center
08:21AM 33.7297 -97.7811 190° South 401 461 18,600 -1,623 Descending Fort Worth Center
08:22AM 33.6169 -97.8033 189° South 397 457 17,000 -1,257 Descending Fort Worth Center
08:28AM 33.2627 -97.4987 135° Southeast 347 399 10,700 -1,059 Descending FlightAware ADS-B
08:28AM 33.1507 -97.3678 136° Southeast 348 400 10,700  Level FlightAware ADS-B
08:29AM 33.1108 -97.3211 136° Southeast 349 402 10,700  Level FlightAware ADS-B
08:30AM 33.0465 -97.2463 135° Southeast 305 351 10,700  Level FlightAware ADS-B
08:31AM 32.9949 -97.1865 137° Southeast 265 305 10,700 -304 Level FlightAware ADS-B
08:31AM 32.9803 -97.1742 165° South 260 299 10,300 -1,200 Descending FlightAware ADS-B
08:31AM 32.9473 -97.1714 181° South 245 282 9,900 -1,350 Descending FlightAware ADS-B
08:32AM 32.9243 -97.1709 178° South 239 275 9,400 -1,800 Descending FlightAware ADS-B
08:32AM 32.9019 -97.1702 179° South 241 277 8,700 -2,053 Descending FlightAware ADS-B
08:32AM 32.8826 -97.1696 179° South 243 280 8,100 -1,902 Descending FlightAware ADS-B
08:33AM 32.8602 -97.1694 180° South 246 283 7,400 -1,756 Descending FlightAware ADS-B
08:33AM 32.8360 -97.1690 179° South 242 278 6,900 -1,692 Descending FlightAware ADS-B
08:33AM 32.8120 -97.1687 180° South 236 272 6,300 -1,756 Descending FlightAware ADS-B
08:34AM 32.7901 -97.1685 180° South 234 269 5,700 -1,846 Descending FlightAware ADS-B
08:34AM 32.7776 -97.1684 180° South 235 270 5,100 -1,800 Descending FlightAware ADS-B
08:34AM 32.7468 -97.1680 179° South 233 268 4,500 -1,610 Descending FlightAware ADS-B
08:35AM 32.7257 -97.1674 177° South 231 266 4,000 -1,692 Descending FlightAware ADS-B
08:35AM 32.7117 -97.1603 130° Southeast 228 262 3,400 -1,579 Descending FlightAware ADS-B
08:35AM 32.7021 -97.1350 86° East 219 252 3,000 -1,000 Descending FlightAware ADS-B
08:36AM 32.7115 -97.1139 44° Northeast 202 232 2,700 -769 Descending FlightAware ADS-B
08:36AM 32.7249 -97.1021 34° Northeast 193 222 2,500 -1,077 Descending FlightAware ADS-B
08:36AM 32.7419 -97.0890 33° Northeast 189 217 2,000 -306 Descending FlightAware ADS-B
08:38AM 32.8000 -97.0667 33° Northeast 151 174 2,000 -221 Level Dallas / Fort Worth TRACON
08:39AM 32.8319 -97.0564 15° North 142 163 1,500 -541 Descending Fort Worth Center
08:40AM 32.8683 -97.0556 North 124 143 900 -492 Descending Fort Worth Center
08:41AM 32.8919 -97.0542 North 118 136 500 -393 Descending Fort Worth Center

Login

Don't have an account? Register now (free) for customized features, flight alerts, and more!